Terminal Aerodrome Forecast
Issued by NWS Melbourne, FL

Home | Current Version | Previous Version | Text Only | Print | Product List | Glossary On
Versions: 1 2 3 4 5 6 7 8 9 10 11 12 13 14 15 16
000
FTUS42 KMLB 220500
TAFDAB
TAF
KDAB 220540Z 2206/2306 00000KT P6SM BKN250
     FM221500 07004KT P6SM SCT025 BKN250
     FM221800 09007KT P6SM VCTS SCT035CB SCT100 BKN250 PROB30
      2218/2221 3SM TSRA BKN025CB
     FM230100 15002KT P6SM SCT050 BKN150=

USA.gov is the U.S. government's official web portal to all federal, state and local government web resources and services.